sensor_id;sensor_type;location;lat;lon;timestamp;P1;durP1;ratioP1;P2;durP2;ratioP2
71558;SDS011;59382;43.852;25.952;2022-08-19T00:01:16;11.23;;;5.88;;
71558;SDS011;59382;43.852;25.952;2022-08-19T00:03:42;6.18;;;5.57;;
71558;SDS011;59382;43.852;25.952;2022-08-19T00:06:07;8.32;;;4.95;;
71558;SDS011;59382;43.852;25.952;2022-08-19T00:08:35;6.78;;;5.65;;
71558;SDS011;59382;43.852;25.952;2022-08-19T00:11:00;9.15;;;5.57;;
71558;SDS011;59382;43.852;25.952;2022-08-19T00:13:26;12.90;;;6.07;;
71558;SDS011;59382;43.852;25.952;2022-08-19T00:15:54;6.72;;;5.47;;
71558;SDS011;59382;43.852;25.952;2022-08-19T00:18:20;5.90;;;5.38;;
71558;SDS011;59382;43.852;25.952;2022-08-19T00:20:45;7.10;;;5.75;;
71558;SDS011;59382;43.852;25.952;2022-08-19T00:23:11;8.65;;;5.63;;
71558;SDS011;59382;43.852;25.952;2022-08-19T00:25:36;7.57;;;5.68;;
71558;SDS011;59382;43.852;25.952;2022-08-19T00:28:02;9.70;;;6.30;;
71558;SDS011;59382;43.852;25.952;2022-08-19T00:30:29;7.00;;;6.05;;
71558;SDS011;59382;43.852;25.952;2022-08-19T00:32:55;7.60;;;6.05;;
71558;SDS011;59382;43.852;25.952;2022-08-19T00:35:21;8.23;;;6.75;;
71558;SDS011;59382;43.852;25.952;2022-08-19T00:37:47;8.20;;;6.03;;
71558;SDS011;59382;43.852;25.952;2022-08-19T00:40:14;9.82;;;6.32;;
71558;SDS011;59382;43.852;25.952;2022-08-19T00:42:40;15.80;;;8.48;;
71558;SDS011;59382;43.852;25.952;2022-08-19T00:45:11;7.63;;;6.78;;
71558;SDS011;59382;43.852;25.952;2022-08-19T00:47:42;15.55;;;6.78;;
71558;SDS011;59382;43.852;25.952;2022-08-19T00:50:11;10.27;;;7.22;;
71558;SDS011;59382;43.852;25.952;2022-08-19T00:52:40;7.53;;;6.22;;
71558;SDS011;59382;43.852;25.952;2022-08-19T00:55:10;13.85;;;6.82;;
71558;SDS011;59382;43.852;25.952;2022-08-19T00:57:56;10.18;;;6.57;;
71558;SDS011;59382;43.852;25.952;2022-08-19T01:00:26;15.50;;;7.53;;
71558;SDS011;59382;43.852;25.952;2022-08-19T01:02:53;12.85;;;7.70;;
71558;SDS011;59382;43.852;25.952;2022-08-19T01:05:20;12.18;;;7.35;;
71558;SDS011;59382;43.852;25.952;2022-08-19T01:07:48;7.72;;;7.00;;
71558;SDS011;59382;43.852;25.952;2022-08-19T01:10:17;7.53;;;6.70;;
71558;SDS011;59382;43.852;25.952;2022-08-19T01:12:46;8.68;;;6.25;;
71558;SDS011;59382;43.852;25.952;2022-08-19T01:15:14;7.18;;;6.35;;
71558;SDS011;59382;43.852;25.952;2022-08-19T01:17:43;6.18;;;5.50;;
71558;SDS011;59382;43.852;25.952;2022-08-19T01:20:11;12.07;;;6.25;;
71558;SDS011;59382;43.852;25.952;2022-08-19T01:22:43;11.38;;;5.85;;
71558;SDS011;59382;43.852;25.952;2022-08-19T01:25:12;8.30;;;6.07;;
71558;SDS011;59382;43.852;25.952;2022-08-19T01:27:40;15.38;;;7.25;;
71558;SDS011;59382;43.852;25.952;2022-08-19T01:30:09;9.63;;;6.65;;
71558;SDS011;59382;43.852;25.952;2022-08-19T01:32:37;14.32;;;7.03;;
71558;SDS011;59382;43.852;25.952;2022-08-19T01:35:03;17.08;;;7.60;;
71558;SDS011;59382;43.852;25.952;2022-08-19T01:37:29;11.50;;;7.55;;
71558;SDS011;59382;43.852;25.952;2022-08-19T01:40:06;10.07;;;6.88;;
71558;SDS011;59382;43.852;25.952;2022-08-19T01:42:33;8.57;;;7.68;;
71558;SDS011;59382;43.852;25.952;2022-08-19T01:45:00;20.92;;;7.95;;
71558;SDS011;59382;43.852;25.952;2022-08-19T01:47:26;7.70;;;6.70;;
71558;SDS011;59382;43.852;25.952;2022-08-19T01:49:51;9.05;;;7.18;;
71558;SDS011;59382;43.852;25.952;2022-08-19T01:52:17;8.25;;;6.70;;
71558;SDS011;59382;43.852;25.952;2022-08-19T01:54:42;10.02;;;6.93;;
71558;SDS011;59382;43.852;25.952;2022-08-19T01:57:09;8.32;;;7.30;;
71558;SDS011;59382;43.852;25.952;2022-08-19T01:59:37;9.73;;;7.50;;
71558;SDS011;59382;43.852;25.952;2022-08-19T02:02:05;8.50;;;7.25;;
71558;SDS011;59382;43.852;25.952;2022-08-19T02:04:34;15.00;;;7.47;;
71558;SDS011;59382;43.852;25.952;2022-08-19T02:07:00;8.30;;;7.47;;
71558;SDS011;59382;43.852;25.952;2022-08-19T02:09:26;12.20;;;7.13;;
71558;SDS011;59382;43.852;25.952;2022-08-19T02:11:52;11.10;;;7.50;;
71558;SDS011;59382;43.852;25.952;2022-08-19T02:14:18;11.93;;;7.53;;
71558;SDS011;59382;43.852;25.952;2022-08-19T02:16:44;7.95;;;6.97;;
71558;SDS011;59382;43.852;25.952;2022-08-19T02:19:09;12.68;;;7.30;;
71558;SDS011;59382;43.852;25.952;2022-08-19T02:21:35;8.52;;;6.57;;
71558;SDS011;59382;43.852;25.952;2022-08-19T02:24:01;10.32;;;7.32;;
71558;SDS011;59382;43.852;25.952;2022-08-19T02:26:27;13.30;;;8.10;;
71558;SDS011;59382;43.852;25.952;2022-08-19T02:28:53;11.88;;;7.60;;
71558;SDS011;59382;43.852;25.952;2022-08-19T02:31:21;8.25;;;7.25;;
71558;SDS011;59382;43.852;25.952;2022-08-19T02:33:48;11.25;;;7.53;;
71558;SDS011;59382;43.852;25.952;2022-08-19T02:36:14;8.65;;;7.10;;
71558;SDS011;59382;43.852;25.952;2022-08-19T02:38:42;12.48;;;7.75;;
71558;SDS011;59382;43.852;25.952;2022-08-19T02:41:13;9.10;;;7.45;;
71558;SDS011;59382;43.852;25.952;2022-08-19T02:48:38;11.07;;;7.60;;
71558;SDS011;59382;43.852;25.952;2022-08-19T02:51:04;14.77;;;7.88;;
71558;SDS011;59382;43.852;25.952;2022-08-19T02:53:30;14.40;;;8.68;;
71558;SDS011;59382;43.852;25.952;2022-08-19T02:55:56;13.00;;;9.80;;
71558;SDS011;59382;43.852;25.952;2022-08-19T02:58:22;9.80;;;7.57;;
71558;SDS011;59382;43.852;25.952;2022-08-19T03:00:50;13.75;;;8.05;;
71558;SDS011;59382;43.852;25.952;2022-08-19T03:03:18;16.27;;;8.45;;
71558;SDS011;59382;43.852;25.952;2022-08-19T03:05:44;21.40;;;8.27;;
71558;SDS011;59382;43.852;25.952;2022-08-19T03:08:11;14.95;;;7.85;;
71558;SDS011;59382;43.852;25.952;2022-08-19T03:10:55;10.07;;;8.10;;
71558;SDS011;59382;43.852;25.952;2022-08-19T03:13:21;11.50;;;7.35;;
71558;SDS011;59382;43.852;25.952;2022-08-19T03:15:47;10.20;;;7.05;;
71558;SDS011;59382;43.852;25.952;2022-08-19T03:18:13;15.75;;;7.95;;
71558;SDS011;59382;43.852;25.952;2022-08-19T03:20:40;14.80;;;7.50;;
71558;SDS011;59382;43.852;25.952;2022-08-19T03:23:07;11.85;;;7.32;;
71558;SDS011;59382;43.852;25.952;2022-08-19T03:25:37;16.58;;;7.70;;
71558;SDS011;59382;43.852;25.952;2022-08-19T03:28:08;14.70;;;8.38;;
71558;SDS011;59382;43.852;25.952;2022-08-19T03:30:38;13.88;;;7.57;;
71558;SDS011;59382;43.852;25.952;2022-08-19T03:33:06;11.15;;;7.50;;
71558;SDS011;59382;43.852;25.952;2022-08-19T03:35:32;18.90;;;7.28;;
71558;SDS011;59382;43.852;25.952;2022-08-19T03:38:00;9.32;;;7.55;;
71558;SDS011;59382;43.852;25.952;2022-08-19T03:40:25;11.43;;;7.57;;
71558;SDS011;59382;43.852;25.952;2022-08-19T03:42:51;10.00;;;7.32;;
71558;SDS011;59382;43.852;25.952;2022-08-19T03:45:17;18.45;;;7.75;;
71558;SDS011;59382;43.852;25.952;2022-08-19T03:47:43;22.80;;;8.43;;
71558;SDS011;59382;43.852;25.952;2022-08-19T03:50:08;8.63;;;7.15;;
71558;SDS011;59382;43.852;25.952;2022-08-19T03:52:34;11.45;;;7.25;;
71558;SDS011;59382;43.852;25.952;2022-08-19T03:55:01;9.70;;;7.95;;
71558;SDS011;59382;43.852;25.952;2022-08-19T03:57:27;9.68;;;7.88;;
71558;SDS011;59382;43.852;25.952;2022-08-19T03:59:53;13.25;;;7.15;;
71558;SDS011;59382;43.852;25.952;2022-08-19T04:02:19;9.02;;;7.28;;
71558;SDS011;59382;43.852;25.952;2022-08-19T04:04:45;12.68;;;7.40;;
71558;SDS011;59382;43.852;25.952;2022-08-19T04:07:11;11.23;;;7.40;;
71558;SDS011;59382;43.852;25.952;2022-08-19T04:09:41;12.23;;;7.43;;
71558;SDS011;59382;43.852;25.952;2022-08-19T04:12:07;23.10;;;7.90;;
71558;SDS011;59382;43.852;25.952;2022-08-19T04:14:33;17.30;;;7.63;;
71558;SDS011;59382;43.852;25.952;2022-08-19T04:17:00;9.73;;;7.63;;
71558;SDS011;59382;43.852;25.952;2022-08-19T04:19:28;18.55;;;8.05;;
71558;SDS011;59382;43.852;25.952;2022-08-19T04:21:54;12.55;;;7.65;;
71558;SDS011;59382;43.852;25.952;2022-08-19T04:24:20;11.90;;;8.13;;
71558;SDS011;59382;43.852;25.952;2022-08-19T04:26:47;27.85;;;7.90;;
71558;SDS011;59382;43.852;25.952;2022-08-19T04:29:15;19.35;;;7.85;;
71558;SDS011;59382;43.852;25.952;2022-08-19T04:31:43;20.13;;;7.78;;
71558;SDS011;59382;43.852;25.952;2022-08-19T04:34:10;26.10;;;7.63;;
71558;SDS011;59382;43.852;25.952;2022-08-19T04:36:37;19.45;;;7.53;;
71558;SDS011;59382;43.852;25.952;2022-08-19T04:39:07;17.48;;;7.38;;
71558;SDS011;59382;43.852;25.952;2022-08-19T04:41:35;19.20;;;7.60;;
71558;SDS011;59382;43.852;25.952;2022-08-19T04:44:19;9.05;;;7.05;;
71558;SDS011;59382;43.852;25.952;2022-08-19T04:46:46;9.48;;;6.90;;
71558;SDS011;59382;43.852;25.952;2022-08-19T04:49:14;11.35;;;7.13;;
71558;SDS011;59382;43.852;25.952;2022-08-19T04:51:42;10.07;;;7.45;;
71558;SDS011;59382;43.852;25.952;2022-08-19T04:54:10;11.88;;;7.80;;
71558;SDS011;59382;43.852;25.952;2022-08-19T04:56:36;21.67;;;8.13;;
71558;SDS011;59382;43.852;25.952;2022-08-19T04:59:04;16.65;;;7.95;;
71558;SDS011;59382;43.852;25.952;2022-08-19T05:01:30;10.35;;;7.50;;
71558;SDS011;59382;43.852;25.952;2022-08-19T05:04:01;10.18;;;7.25;;
71558;SDS011;59382;43.852;25.952;2022-08-19T05:06:29;10.75;;;7.70;;
71558;SDS011;59382;43.852;25.952;2022-08-19T05:08:58;9.40;;;7.43;;
71558;SDS011;59382;43.852;25.952;2022-08-19T05:11:32;8.82;;;7.50;;
71558;SDS011;59382;43.852;25.952;2022-08-19T05:14:04;14.98;;;7.65;;
71558;SDS011;59382;43.852;25.952;2022-08-19T05:16:34;10.82;;;8.40;;
71558;SDS011;59382;43.852;25.952;2022-08-19T05:19:00;18.30;;;9.27;;
71558;SDS011;59382;43.852;25.952;2022-08-19T05:21:44;12.02;;;7.95;;
71558;SDS011;59382;43.852;25.952;2022-08-19T05:24:28;14.75;;;8.35;;
71558;SDS011;59382;43.852;25.952;2022-08-19T05:26:54;14.57;;;9.23;;
71558;SDS011;59382;43.852;25.952;2022-08-19T05:29:25;14.18;;;9.15;;
71558;SDS011;59382;43.852;25.952;2022-08-19T05:31:52;16.05;;;9.60;;
71558;SDS011;59382;43.852;25.952;2022-08-19T05:34:18;11.57;;;8.95;;
71558;SDS011;59382;43.852;25.952;2022-08-19T05:36:47;13.35;;;8.85;;
71558;SDS011;59382;43.852;25.952;2022-08-19T05:39:15;20.20;;;11.50;;
71558;SDS011;59382;43.852;25.952;2022-08-19T05:41:44;19.08;;;11.43;;
71558;SDS011;59382;43.852;25.952;2022-08-19T05:44:12;24.15;;;10.63;;
71558;SDS011;59382;43.852;25.952;2022-08-19T05:46:39;13.95;;;10.77;;
71558;SDS011;59382;43.852;25.952;2022-08-19T05:49:05;13.85;;;10.50;;
71558;SDS011;59382;43.852;25.952;2022-08-19T05:51:33;20.83;;;11.15;;
71558;SDS011;59382;43.852;25.952;2022-08-19T05:54:01;23.05;;;11.15;;
71558;SDS011;59382;43.852;25.952;2022-08-19T05:56:27;15.85;;;10.88;;
71558;SDS011;59382;43.852;25.952;2022-08-19T05:58:52;16.08;;;10.23;;
71558;SDS011;59382;43.852;25.952;2022-08-19T06:01:19;15.45;;;8.77;;
71558;SDS011;59382;43.852;25.952;2022-08-19T06:03:45;14.88;;;7.82;;
71558;SDS011;59382;43.852;25.952;2022-08-19T06:06:13;15.95;;;8.32;;
71558;SDS011;59382;43.852;25.952;2022-08-19T06:08:40;17.35;;;9.02;;
71558;SDS011;59382;43.852;25.952;2022-08-19T06:11:12;20.00;;;10.05;;
71558;SDS011;59382;43.852;25.952;2022-08-19T06:13:41;25.60;;;9.32;;
71558;SDS011;59382;43.852;25.952;2022-08-19T06:16:06;16.23;;;10.23;;
71558;SDS011;59382;43.852;25.952;2022-08-19T06:18:32;15.48;;;10.13;;
71558;SDS011;59382;43.852;25.952;2022-08-19T06:20:58;21.27;;;9.10;;
71558;SDS011;59382;43.852;25.952;2022-08-19T06:23:24;16.02;;;8.05;;
71558;SDS011;59382;43.852;25.952;2022-08-19T06:25:50;13.20;;;9.00;;
71558;SDS011;59382;43.852;25.952;2022-08-19T06:28:16;16.80;;;7.85;;
71558;SDS011;59382;43.852;25.952;2022-08-19T06:30:41;16.42;;;8.27;;
71558;SDS011;59382;43.852;25.952;2022-08-19T06:33:07;16.98;;;8.30;;
71558;SDS011;59382;43.852;25.952;2022-08-19T06:35:32;17.13;;;8.13;;
71558;SDS011;59382;43.852;25.952;2022-08-19T06:38:03;12.55;;;8.18;;
71558;SDS011;59382;43.852;25.952;2022-08-19T06:40:30;9.40;;;8.45;;
71558;SDS011;59382;43.852;25.952;2022-08-19T06:42:55;16.38;;;7.53;;
71558;SDS011;59382;43.852;25.952;2022-08-19T06:45:23;10.20;;;7.57;;
71558;SDS011;59382;43.852;25.952;2022-08-19T06:47:49;10.93;;;7.80;;
71558;SDS011;59382;43.852;25.952;2022-08-19T06:50:16;9.30;;;7.35;;
71558;SDS011;59382;43.852;25.952;2022-08-19T06:52:42;15.35;;;8.02;;
71558;SDS011;59382;43.852;25.952;2022-08-19T06:55:07;10.60;;;7.13;;
71558;SDS011;59382;43.852;25.952;2022-08-19T06:57:33;9.32;;;6.75;;
71558;SDS011;59382;43.852;25.952;2022-08-19T06:59:59;13.27;;;7.07;;
71558;SDS011;59382;43.852;25.952;2022-08-19T07:02:27;11.43;;;7.45;;
71558;SDS011;59382;43.852;25.952;2022-08-19T07:04:53;7.72;;;5.95;;
71558;SDS011;59382;43.852;25.952;2022-08-19T07:07:20;11.38;;;6.47;;
71558;SDS011;59382;43.852;25.952;2022-08-19T07:09:48;12.77;;;6.80;;
71558;SDS011;59382;43.852;25.952;2022-08-19T07:12:15;14.77;;;7.70;;
71558;SDS011;59382;43.852;25.952;2022-08-19T07:14:41;13.93;;;6.57;;
71558;SDS011;59382;43.852;25.952;2022-08-19T07:17:08;10.75;;;5.85;;
71558;SDS011;59382;43.852;25.952;2022-08-19T07:19:35;8.18;;;5.22;;
71558;SDS011;59382;43.852;25.952;2022-08-19T07:22:03;8.75;;;5.57;;
71558;SDS011;59382;43.852;25.952;2022-08-19T07:24:32;14.45;;;8.45;;
71558;SDS011;59382;43.852;25.952;2022-08-19T07:26:59;13.10;;;6.72;;
71558;SDS011;59382;43.852;25.952;2022-08-19T07:29:27;7.93;;;5.65;;
71558;SDS011;59382;43.852;25.952;2022-08-19T07:31:54;11.95;;;5.53;;
71558;SDS011;59382;43.852;25.952;2022-08-19T07:34:21;13.05;;;4.60;;
71558;SDS011;59382;43.852;25.952;2022-08-19T07:36:49;8.48;;;4.65;;
71558;SDS011;59382;43.852;25.952;2022-08-19T07:39:20;8.02;;;4.53;;
71558;SDS011;59382;43.852;25.952;2022-08-19T07:41:48;7.38;;;4.07;;
71558;SDS011;59382;43.852;25.952;2022-08-19T07:44:15;7.05;;;4.55;;
71558;SDS011;59382;43.852;25.952;2022-08-19T07:46:43;9.00;;;5.20;;
71558;SDS011;59382;43.852;25.952;2022-08-19T07:49:11;9.48;;;4.70;;
71558;SDS011;59382;43.852;25.952;2022-08-19T07:51:42;5.95;;;4.75;;
71558;SDS011;59382;43.852;25.952;2022-08-19T07:54:09;8.05;;;5.43;;
71558;SDS011;59382;43.852;25.952;2022-08-19T07:56:34;4.45;;;4.05;;
71558;SDS011;59382;43.852;25.952;2022-08-19T07:59:00;5.28;;;4.30;;
71558;SDS011;59382;43.852;25.952;2022-08-19T08:01:26;4.40;;;3.97;;
71558;SDS011;59382;43.852;25.952;2022-08-19T08:03:53;6.22;;;4.78;;
71558;SDS011;59382;43.852;25.952;2022-08-19T08:06:38;8.57;;;5.18;;
71558;SDS011;59382;43.852;25.952;2022-08-19T08:09:24;9.60;;;5.83;;
71558;SDS011;59382;43.852;25.952;2022-08-19T08:11:58;9.35;;;4.47;;
71558;SDS011;59382;43.852;25.952;2022-08-19T08:14:39;7.10;;;4.13;;
71558;SDS011;59382;43.852;25.952;2022-08-19T08:17:07;7.00;;;4.15;;
71558;SDS011;59382;43.852;25.952;2022-08-19T08:19:34;8.65;;;4.18;;
71558;SDS011;59382;43.852;25.952;2022-08-19T08:22:00;4.07;;;3.67;;
71558;SDS011;59382;43.852;25.952;2022-08-19T08:24:27;6.00;;;4.32;;
71558;SDS011;59382;43.852;25.952;2022-08-19T08:26:56;12.95;;;4.22;;
71558;SDS011;59382;43.852;25.952;2022-08-19T08:29:24;7.20;;;5.30;;
71558;SDS011;59382;43.852;25.952;2022-08-19T08:31:51;11.32;;;5.68;;
71558;SDS011;59382;43.852;25.952;2022-08-19T08:34:17;14.52;;;5.63;;
71558;SDS011;59382;43.852;25.952;2022-08-19T08:36:44;13.10;;;4.63;;
71558;SDS011;59382;43.852;25.952;2022-08-19T08:39:15;8.45;;;5.18;;
71558;SDS011;59382;43.852;25.952;2022-08-19T08:42:00;9.68;;;5.38;;
71558;SDS011;59382;43.852;25.952;2022-08-19T08:44:39;10.65;;;4.93;;
71558;SDS011;59382;43.852;25.952;2022-08-19T08:47:11;10.73;;;5.65;;
71558;SDS011;59382;43.852;25.952;2022-08-19T08:49:55;13.27;;;5.15;;
71558;SDS011;59382;43.852;25.952;2022-08-19T08:52:33;6.78;;;4.75;;
71558;SDS011;59382;43.852;25.952;2022-08-19T08:55:05;8.63;;;4.03;;
71558;SDS011;59382;43.852;25.952;2022-08-19T09:00:21;8.73;;;4.53;;
71558;SDS011;59382;43.852;25.952;2022-08-19T09:02:53;7.65;;;4.75;;
71558;SDS011;59382;43.852;25.952;2022-08-19T09:05:20;8.05;;;4.57;;
71558;SDS011;59382;43.852;25.952;2022-08-19T09:08:04;9.32;;;4.57;;
71558;SDS011;59382;43.852;25.952;2022-08-19T09:10:46;8.30;;;4.80;;
71558;SDS011;59382;43.852;25.952;2022-08-19T09:16:23;6.18;;;5.15;;
71558;SDS011;59382;43.852;25.952;2022-08-19T09:18:53;14.32;;;6.00;;
71558;SDS011;59382;43.852;25.952;2022-08-19T09:21:24;6.05;;;4.55;;
71558;SDS011;59382;43.852;25.952;2022-08-19T09:23:51;7.00;;;4.07;;
71558;SDS011;59382;43.852;25.952;2022-08-19T09:26:18;10.52;;;4.90;;
71558;SDS011;59382;43.852;25.952;2022-08-19T09:28:46;6.38;;;4.10;;
71558;SDS011;59382;43.852;25.952;2022-08-19T09:31:14;9.02;;;4.85;;
71558;SDS011;59382;43.852;25.952;2022-08-19T09:33:43;11.98;;;4.65;;
71558;SDS011;59382;43.852;25.952;2022-08-19T09:36:09;8.80;;;4.20;;
71558;SDS011;59382;43.852;25.952;2022-08-19T09:38:37;10.98;;;4.80;;
71558;SDS011;59382;43.852;25.952;2022-08-19T09:41:06;6.85;;;4.70;;
71558;SDS011;59382;43.852;25.952;2022-08-19T09:43:33;7.57;;;5.30;;
71558;SDS011;59382;43.852;25.952;2022-08-19T09:46:04;11.48;;;6.35;;
71558;SDS011;59382;43.852;25.952;2022-08-19T09:48:32;12.63;;;4.43;;
71558;SDS011;59382;43.852;25.952;2022-08-19T09:51:11;4.70;;;4.28;;
71558;SDS011;59382;43.852;25.952;2022-08-19T09:53:40;7.40;;;5.05;;
71558;SDS011;59382;43.852;25.952;2022-08-19T09:56:05;8.45;;;5.10;;
71558;SDS011;59382;43.852;25.952;2022-08-19T09:58:32;6.65;;;4.43;;
71558;SDS011;59382;43.852;25.952;2022-08-19T10:00:58;5.60;;;4.63;;
71558;SDS011;59382;43.852;25.952;2022-08-19T10:03:25;13.50;;;5.90;;
71558;SDS011;59382;43.852;25.952;2022-08-19T10:05:52;11.20;;;5.82;;
71558;SDS011;59382;43.852;25.952;2022-08-19T10:08:21;6.60;;;4.88;;
71558;SDS011;59382;43.852;25.952;2022-08-19T10:10:48;8.75;;;4.63;;
71558;SDS011;59382;43.852;25.952;2022-08-19T10:13:16;8.52;;;4.50;;
71558;SDS011;59382;43.852;25.952;2022-08-19T10:15:50;6.90;;;5.22;;
71558;SDS011;59382;43.852;25.952;2022-08-19T10:18:22;7.20;;;5.63;;
71558;SDS011;59382;43.852;25.952;2022-08-19T10:20:50;10.98;;;4.85;;
71558;SDS011;59382;43.852;25.952;2022-08-19T10:23:18;6.18;;;4.20;;
71558;SDS011;59382;43.852;25.952;2022-08-19T10:25:45;5.60;;;4.60;;
71558;SDS011;59382;43.852;25.952;2022-08-19T10:28:27;9.15;;;5.22;;
71558;SDS011;59382;43.852;25.952;2022-08-19T10:31:17;17.15;;;5.28;;
71558;SDS011;59382;43.852;25.952;2022-08-19T10:33:46;11.20;;;4.70;;
71558;SDS011;59382;43.852;25.952;2022-08-19T10:36:18;6.20;;;5.60;;
71558;SDS011;59382;43.852;25.952;2022-08-19T10:38:46;11.77;;;5.93;;
71558;SDS011;59382;43.852;25.952;2022-08-19T10:41:18;8.18;;;5.35;;
71558;SDS011;59382;43.852;25.952;2022-08-19T10:43:50;13.07;;;5.35;;
71558;SDS011;59382;43.852;25.952;2022-08-19T10:46:19;5.70;;;5.03;;
71558;SDS011;59382;43.852;25.952;2022-08-19T10:48:47;5.32;;;4.72;;
71558;SDS011;59382;43.852;25.952;2022-08-19T10:51:12;9.13;;;5.38;;
71558;SDS011;59382;43.852;25.952;2022-08-19T10:53:57;7.72;;;4.57;;
71558;SDS011;59382;43.852;25.952;2022-08-19T10:56:23;7.95;;;4.95;;
71558;SDS011;59382;43.852;25.952;2022-08-19T10:59:07;10.83;;;5.03;;
71558;SDS011;59382;43.852;25.952;2022-08-19T11:01:34;6.75;;;5.80;;
71558;SDS011;59382;43.852;25.952;2022-08-19T11:04:01;7.75;;;5.13;;
71558;SDS011;59382;43.852;25.952;2022-08-19T11:06:41;10.75;;;5.00;;
71558;SDS011;59382;43.852;25.952;2022-08-19T11:09:09;10.88;;;4.70;;
71558;SDS011;59382;43.852;25.952;2022-08-19T11:11:41;6.40;;;4.43;;
71558;SDS011;59382;43.852;25.952;2022-08-19T11:14:08;5.38;;;4.63;;
71558;SDS011;59382;43.852;25.952;2022-08-19T11:16:36;11.55;;;5.63;;
71558;SDS011;59382;43.852;25.952;2022-08-19T11:19:03;15.27;;;5.57;;
71558;SDS011;59382;43.852;25.952;2022-08-19T11:21:31;10.93;;;4.95;;
71558;SDS011;59382;43.852;25.952;2022-08-19T11:24:01;9.05;;;4.50;;
71558;SDS011;59382;43.852;25.952;2022-08-19T11:26:31;9.30;;;4.93;;
71558;SDS011;59382;43.852;25.952;2022-08-19T11:28:58;11.32;;;5.50;;
71558;SDS011;59382;43.852;25.952;2022-08-19T11:31:30;9.00;;;5.00;;
71558;SDS011;59382;43.852;25.952;2022-08-19T11:33:59;9.15;;;5.15;;
71558;SDS011;59382;43.852;25.952;2022-08-19T11:36:27;6.20;;;4.60;;
71558;SDS011;59382;43.852;25.952;2022-08-19T11:38:53;9.90;;;5.13;;
71558;SDS011;59382;43.852;25.952;2022-08-19T11:41:21;6.35;;;4.90;;
71558;SDS011;59382;43.852;25.952;2022-08-19T11:43:51;9.23;;;4.75;;
71558;SDS011;59382;43.852;25.952;2022-08-19T11:46:19;9.50;;;4.53;;
71558;SDS011;59382;43.852;25.952;2022-08-19T11:48:46;9.70;;;5.10;;
71558;SDS011;59382;43.852;25.952;2022-08-19T11:51:14;7.00;;;4.80;;
71558;SDS011;59382;43.852;25.952;2022-08-19T11:53:42;7.43;;;5.05;;
71558;SDS011;59382;43.852;25.952;2022-08-19T11:56:08;9.05;;;5.13;;
71558;SDS011;59382;43.852;25.952;2022-08-19T11:58:34;6.15;;;4.82;;
71558;SDS011;59382;43.852;25.952;2022-08-19T12:01:00;9.88;;;4.82;;
71558;SDS011;59382;43.852;25.952;2022-08-19T12:03:27;10.98;;;5.03;;
71558;SDS011;59382;43.852;25.952;2022-08-19T12:05:56;6.10;;;4.80;;
71558;SDS011;59382;43.852;25.952;2022-08-19T12:08:22;8.00;;;5.00;;
71558;SDS011;59382;43.852;25.952;2022-08-19T12:10:47;7.30;;;4.38;;
71558;SDS011;59382;43.852;25.952;2022-08-19T12:13:20;8.52;;;4.80;;
71558;SDS011;59382;43.852;25.952;2022-08-19T12:15:46;9.07;;;6.18;;
71558;SDS011;59382;43.852;25.952;2022-08-19T12:18:12;6.68;;;5.07;;
71558;SDS011;59382;43.852;25.952;2022-08-19T12:20:41;13.65;;;5.70;;
71558;SDS011;59382;43.852;25.952;2022-08-19T12:23:10;6.10;;;4.40;;
71558;SDS011;59382;43.852;25.952;2022-08-19T12:25:37;7.03;;;5.20;;
71558;SDS011;59382;43.852;25.952;2022-08-19T12:28:16;5.47;;;4.25;;
71558;SDS011;59382;43.852;25.952;2022-08-19T12:30:45;6.55;;;5.43;;
71558;SDS011;59382;43.852;25.952;2022-08-19T12:33:11;6.32;;;4.57;;
71558;SDS011;59382;43.852;25.952;2022-08-19T12:35:41;6.15;;;4.45;;
71558;SDS011;59382;43.852;25.952;2022-08-19T12:38:14;5.63;;;5.07;;
71558;SDS011;59382;43.852;25.952;2022-08-19T12:40:40;5.30;;;4.22;;
71558;SDS011;59382;43.852;25.952;2022-08-19T12:43:06;6.60;;;3.95;;
71558;SDS011;59382;43.852;25.952;2022-08-19T12:45:32;7.68;;;4.40;;
71558;SDS011;59382;43.852;25.952;2022-08-19T12:47:59;5.10;;;4.13;;
71558;SDS011;59382;43.852;25.952;2022-08-19T12:50:26;6.85;;;4.05;;
71558;SDS011;59382;43.852;25.952;2022-08-19T12:52:51;6.38;;;4.68;;
71558;SDS011;59382;43.852;25.952;2022-08-19T12:55:18;4.70;;;4.20;;
71558;SDS011;59382;43.852;25.952;2022-08-19T12:57:44;6.15;;;5.40;;
71558;SDS011;59382;43.852;25.952;2022-08-19T13:00:34;12.98;;;4.57;;
71558;SDS011;59382;43.852;25.952;2022-08-19T13:03:00;9.63;;;5.53;;
71558;SDS011;59382;43.852;25.952;2022-08-19T13:05:28;11.70;;;4.05;;
71558;SDS011;59382;43.852;25.952;2022-08-19T13:07:57;10.50;;;5.25;;
71558;SDS011;59382;43.852;25.952;2022-08-19T13:10:29;6.47;;;5.15;;
71558;SDS011;59382;43.852;25.952;2022-08-19T13:13:00;12.82;;;5.18;;
71558;SDS011;59382;43.852;25.952;2022-08-19T13:15:28;12.88;;;4.57;;
71558;SDS011;59382;43.852;25.952;2022-08-19T13:17:56;5.35;;;4.82;;
71558;SDS011;59382;43.852;25.952;2022-08-19T13:20:23;14.75;;;9.23;;
71558;SDS011;59382;43.852;25.952;2022-08-19T13:22:49;9.98;;;5.10;;
71558;SDS011;59382;43.852;25.952;2022-08-19T13:25:15;7.78;;;3.80;;
71558;SDS011;59382;43.852;25.952;2022-08-19T13:27:42;5.03;;;4.00;;
71558;SDS011;59382;43.852;25.952;2022-08-19T13:30:10;7.50;;;5.00;;
71558;SDS011;59382;43.852;25.952;2022-08-19T13:32:56;4.65;;;4.05;;
71558;SDS011;59382;43.852;25.952;2022-08-19T13:35:42;5.43;;;4.10;;
71558;SDS011;59382;43.852;25.952;2022-08-19T13:38:13;13.50;;;7.28;;
71558;SDS011;59382;43.852;25.952;2022-08-19T13:40:41;12.77;;;5.32;;
71558;SDS011;59382;43.852;25.952;2022-08-19T13:43:07;7.10;;;5.45;;
71558;SDS011;59382;43.852;25.952;2022-08-19T13:45:34;9.73;;;4.97;;
71558;SDS011;59382;43.852;25.952;2022-08-19T13:48:01;7.78;;;4.20;;
71558;SDS011;59382;43.852;25.952;2022-08-19T13:50:33;8.75;;;3.85;;
71558;SDS011;59382;43.852;25.952;2022-08-19T13:53:02;13.07;;;4.95;;
71558;SDS011;59382;43.852;25.952;2022-08-19T13:55:29;6.30;;;4.10;;
71558;SDS011;59382;43.852;25.952;2022-08-19T13:57:56;5.47;;;3.90;;
71558;SDS011;59382;43.852;25.952;2022-08-19T14:00:28;5.50;;;4.35;;
71558;SDS011;59382;43.852;25.952;2022-08-19T14:02:55;6.50;;;4.20;;
71558;SDS011;59382;43.852;25.952;2022-08-19T14:05:22;6.43;;;4.00;;
71558;SDS011;59382;43.852;25.952;2022-08-19T14:07:48;6.57;;;3.85;;
71558;SDS011;59382;43.852;25.952;2022-08-19T14:10:14;4.72;;;4.03;;
71558;SDS011;59382;43.852;25.952;2022-08-19T14:12:40;13.38;;;5.63;;
71558;SDS011;59382;43.852;25.952;2022-08-19T14:15:07;9.90;;;4.82;;
71558;SDS011;59382;43.852;25.952;2022-08-19T14:17:37;8.93;;;4.95;;
71558;SDS011;59382;43.852;25.952;2022-08-19T14:20:04;8.10;;;5.10;;
71558;SDS011;59382;43.852;25.952;2022-08-19T14:22:38;5.55;;;4.78;;
71558;SDS011;59382;43.852;25.952;2022-08-19T14:25:07;7.50;;;4.68;;
71558;SDS011;59382;43.852;25.952;2022-08-19T14:27:35;12.18;;;4.90;;
71558;SDS011;59382;43.852;25.952;2022-08-19T14:30:03;8.45;;;4.70;;
71558;SDS011;59382;43.852;25.952;2022-08-19T14:32:29;7.20;;;4.68;;
71558;SDS011;59382;43.852;25.952;2022-08-19T14:35:04;8.77;;;5.35;;
71558;SDS011;59382;43.852;25.952;2022-08-19T14:37:32;6.85;;;4.68;;
71558;SDS011;59382;43.852;25.952;2022-08-19T14:39:59;7.55;;;4.38;;
71558;SDS011;59382;43.852;25.952;2022-08-19T14:42:24;7.03;;;4.35;;
71558;SDS011;59382;43.852;25.952;2022-08-19T14:44:50;7.03;;;5.75;;
71558;SDS011;59382;43.852;25.952;2022-08-19T14:47:15;8.90;;;4.30;;